createdAt,value
2022-08-14T00:00:09.274Z,24.14
2022-08-14T00:02:38.983Z,24.04
2022-08-14T00:05:05.542Z,23.88
2022-08-14T00:07:31.930Z,25.43
2022-08-14T00:10:01.609Z,25.51
2022-08-14T00:12:47.999Z,24.38
2022-08-14T00:15:19.931Z,24.00
2022-08-14T00:17:53.048Z,23.69
2022-08-14T00:20:23.856Z,23.72
2022-08-14T00:22:58.381Z,24.02
2022-08-14T00:25:25.089Z,23.80
2022-08-14T00:28:07.914Z,24.10
2022-08-14T00:30:35.432Z,24.01
2022-08-14T00:33:15.393Z,24.30
2022-08-14T00:36:46.979Z,23.92
2022-08-14T00:38:29.058Z,24.05
2022-08-14T00:40:58.498Z,23.98
2022-08-14T00:43:24.863Z,25.24
2022-08-14T00:45:58.564Z,25.52
2022-08-14T00:48:34.870Z,24.41
2022-08-14T00:51:03.420Z,24.16
2022-08-14T00:53:29.799Z,23.95
2022-08-14T00:55:56.229Z,23.97
2022-08-14T00:58:32.599Z,23.88
2022-08-14T01:00:59.706Z,23.78
2022-08-14T01:03:28.507Z,24.04
2022-08-14T01:05:57.326Z,23.94
2022-08-14T01:08:51.887Z,23.97
2022-08-14T01:11:10.825Z,23.97
2022-08-14T01:13:42.899Z,23.91
2022-08-14T01:16:09.738Z,24.20
2022-08-14T01:18:40.370Z,24.55
2022-08-14T01:21:08.650Z,25.73
2022-08-14T01:23:46.826Z,24.62
2022-08-14T01:26:13.644Z,23.92
2022-08-14T01:28:57.784Z,23.80
2022-08-14T01:31:24.332Z,23.93
2022-08-14T01:33:59.380Z,23.79
2022-08-14T01:36:35.621Z,23.94
2022-08-14T01:39:02.023Z,23.77
2022-08-14T01:41:36.227Z,24.17
2022-08-14T01:44:02.609Z,24.29
2022-08-14T01:46:33.223Z,24.07
2022-08-14T01:49:02.971Z,23.93
2022-08-14T01:51:29.361Z,24.29
2022-08-14T01:53:56.397Z,24.29
2022-08-14T01:56:22.908Z,25.90
2022-08-14T01:58:58.073Z,24.55
2022-08-14T02:01:26.697Z,24.17
2022-08-14T02:03:56.985Z,23.94
2022-08-14T02:06:33.437Z,23.91
2022-08-14T02:09:00.232Z,23.88
2022-08-14T02:11:26.620Z,23.76
2022-08-14T02:13:55.454Z,23.85
2022-08-14T02:16:22.937Z,24.21
2022-08-14T02:18:49.503Z,24.10
2022-08-14T02:21:15.883Z,23.86
2022-08-14T02:23:46.157Z,24.15
2022-08-14T02:26:24.369Z,24.10
2022-08-14T02:28:57.828Z,24.38
2022-08-14T02:31:28.640Z,26.08
2022-08-14T02:34:22.147Z,24.57
2022-08-14T02:37:04.654Z,24.04
2022-08-14T02:39:32.905Z,24.13
2022-08-14T02:41:59.341Z,23.68
2022-08-14T02:44:30.846Z,23.94
2022-08-14T02:47:01.581Z,24.10
2022-08-14T02:49:34.336Z,24.05
2022-08-14T02:52:00.836Z,23.82
2022-08-14T02:54:27.212Z,24.16
2022-08-14T02:57:16.345Z,24.03
2022-08-14T02:59:40.048Z,23.84
2022-08-14T03:02:09.802Z,24.05
2022-08-14T03:04:56.220Z,25.44
2022-08-14T03:07:22.612Z,25.73
2022-08-14T03:10:26.784Z,24.28
2022-08-14T03:12:36.823Z,24.11
2022-08-14T03:15:03.290Z,24.02
2022-08-14T03:17:31.920Z,24.02
2022-08-14T03:20:07.384Z,23.95
2022-08-14T03:22:37.879Z,23.87
2022-08-14T03:25:08.368Z,23.94
2022-08-14T03:27:48.312Z,24.16
2022-08-14T03:30:23.654Z,23.97
2022-08-14T03:32:50.082Z,24.02
2022-08-14T03:35:17.876Z,24.09
2022-08-14T03:39:09.916Z,24.01
2022-08-14T03:40:30.737Z,26.15
2022-08-14T03:42:57.189Z,25.13
2022-08-14T03:45:34.056Z,24.49
2022-08-14T03:48:02.330Z,23.97
2022-08-14T03:50:31.701Z,23.93
2022-08-14T03:53:00.626Z,23.77
2022-08-14T03:55:27.199Z,24.05
2022-08-14T03:57:53.917Z,23.89
2022-08-14T04:00:42.949Z,24.16
2022-08-14T04:03:06.735Z,24.04
2022-08-14T04:05:42.862Z,23.96
2022-08-14T04:08:29.126Z,24.16
2022-08-14T04:10:57.278Z,24.11
2022-08-14T04:13:24.020Z,24.17
2022-08-14T04:15:56.575Z,26.06
2022-08-14T04:18:28.597Z,24.54
2022-08-14T04:20:55.990Z,23.96
2022-08-14T04:23:23.793Z,23.87
2022-08-14T04:25:55.698Z,23.94
2022-08-14T04:29:07.248Z,24.15
2022-08-14T04:31:08.534Z,23.77
2022-08-14T04:33:37.330Z,24.18
2022-08-14T04:36:03.742Z,24.00
2022-08-14T04:38:36.458Z,23.94
2022-08-14T04:41:04.726Z,24.34
2022-08-14T04:43:38.851Z,24.20
2022-08-14T04:46:06.874Z,24.13
2022-08-14T04:48:43.320Z,24.25
2022-08-14T04:51:10.244Z,26.02
2022-08-14T04:53:41.112Z,24.93
2022-08-14T04:56:10.787Z,24.12
2022-08-14T04:58:55.868Z,24.05
2022-08-14T05:01:22.268Z,24.00
2022-08-14T05:03:48.678Z,24.26
2022-08-14T05:06:38.455Z,24.02
2022-08-14T05:09:03.780Z,23.95
2022-08-14T05:11:31.263Z,24.23
2022-08-14T05:14:17.326Z,24.46
2022-08-14T05:16:44.056Z,24.09
2022-08-14T05:19:18.471Z,24.27
2022-08-14T05:22:00.552Z,24.19
2022-08-14T05:24:38.222Z,25.83
2022-08-14T05:27:04.901Z,25.59
2022-08-14T05:29:31.270Z,24.78
2022-08-14T05:31:58.918Z,24.12
2022-08-14T05:34:28.598Z,24.28
2022-08-14T05:37:01.998Z,24.28
2022-08-14T05:39:29.401Z,24.33
2022-08-14T05:41:55.835Z,24.08
2022-08-14T05:44:22.949Z,24.05
2022-08-14T05:46:51.252Z,24.26
2022-08-14T05:49:21.411Z,24.15
2022-08-14T05:51:47.884Z,24.26
2022-08-14T05:54:27.166Z,24.38
2022-08-14T05:56:54.016Z,24.17
2022-08-14T05:59:21.719Z,26.08
2022-08-14T06:02:03.322Z,25.47
2022-08-14T06:04:32.351Z,24.41
2022-08-14T06:06:59.131Z,24.32
2022-08-14T06:09:25.545Z,24.23
2022-08-14T06:11:52.112Z,23.98
2022-08-14T06:14:23.976Z,24.22
2022-08-14T06:16:53.040Z,24.38
2022-08-14T06:19:19.556Z,24.18
2022-08-14T06:21:46.413Z,24.15
2022-08-14T06:24:18.905Z,24.43
2022-08-14T06:26:54.396Z,24.60
2022-08-14T06:29:32.050Z,24.18
2022-08-14T06:32:00.587Z,24.17
2022-08-14T06:35:09.122Z,26.54
2022-08-14T06:37:32.656Z,25.08
2022-08-14T06:39:59.128Z,24.20
2022-08-14T06:42:33.048Z,24.41
2022-08-14T06:44:59.947Z,23.96
2022-08-14T06:47:26.644Z,24.09
2022-08-14T06:49:57.692Z,23.96
2022-08-14T06:52:24.474Z,24.38
2022-08-14T06:54:51.304Z,24.25
2022-08-14T06:57:18.286Z,24.17
2022-08-14T06:59:44.748Z,24.51
2022-08-14T07:02:13.181Z,24.43
2022-08-14T07:04:40.145Z,24.50
2022-08-14T07:07:07.194Z,24.28
2022-08-14T07:09:43.700Z,26.55
2022-08-14T07:12:54.891Z,24.98
2022-08-14T07:15:03.653Z,24.62
2022-08-14T07:17:31.945Z,24.06
2022-08-14T07:20:00.713Z,24.21
2022-08-14T07:22:32.925Z,24.07
2022-08-14T07:25:13.546Z,24.36
2022-08-14T07:27:40.768Z,24.34
2022-08-14T07:30:09.238Z,24.59
2022-08-14T07:32:55.604Z,24.36
2022-08-14T07:35:21.984Z,24.28
2022-08-14T07:37:50.050Z,24.44
2022-08-14T07:40:22.170Z,24.36
2022-08-14T07:42:53.761Z,24.80
2022-08-14T07:45:20.191Z,26.16
2022-08-14T07:47:48.748Z,24.82
2022-08-14T07:50:16.628Z,24.45
2022-08-14T07:52:46.719Z,24.45
2022-08-14T07:55:13.217Z,24.30
2022-08-14T07:57:40.083Z,24.28
2022-08-14T08:00:07.227Z,24.14
2022-08-14T08:02:33.713Z,24.21
2022-08-14T08:05:00.140Z,24.08
2022-08-14T08:07:29.939Z,24.10
2022-08-14T08:09:56.972Z,24.26
2022-08-14T08:12:29.559Z,24.57
2022-08-14T08:15:02.587Z,24.31
2022-08-14T08:17:34.425Z,24.48
2022-08-14T08:20:04.570Z,26.54
2022-08-14T08:22:32.513Z,25.27
2022-08-14T08:24:59.186Z,24.42
2022-08-14T08:27:27.202Z,24.08
2022-08-14T08:29:53.585Z,24.08
2022-08-14T08:32:21.143Z,24.17
2022-08-14T08:34:56.221Z,23.99
2022-08-14T08:37:25.486Z,24.20
2022-08-14T08:40:03.344Z,24.23
2022-08-14T08:42:31.195Z,24.48
2022-08-14T08:45:04.593Z,24.38
2022-08-14T08:47:34.553Z,24.50
2022-08-14T08:50:00.966Z,24.36
2022-08-14T08:52:31.380Z,24.26
2022-08-14T08:54:58.737Z,26.87
2022-08-14T08:57:25.235Z,25.26
2022-08-14T08:59:55.256Z,24.42
2022-08-14T09:02:26.072Z,24.52
2022-08-14T09:04:54.019Z,24.08
2022-08-14T09:07:20.423Z,24.20
2022-08-14T09:09:54.347Z,24.55
2022-08-14T09:12:27.026Z,24.26
2022-08-14T09:14:56.211Z,24.63
2022-08-14T09:17:25.995Z,24.51
2022-08-14T09:19:52.738Z,24.66
2022-08-14T09:22:33.750Z,24.58
2022-08-14T09:25:03.090Z,24.54
2022-08-14T09:27:29.489Z,24.61
2022-08-14T09:29:55.929Z,26.89
2022-08-14T09:33:09.366Z,25.39
2022-08-14T09:35:09.454Z,24.69
2022-08-14T09:37:35.910Z,24.20
2022-08-14T09:40:02.399Z,24.34
2022-08-14T09:42:33.612Z,24.07
2022-08-14T09:45:03.941Z,24.40
2022-08-14T09:47:34.434Z,24.31
2022-08-14T09:50:00.859Z,24.34
2022-08-14T09:52:44.055Z,24.44
2022-08-14T09:55:12.821Z,24.56
2022-08-14T09:57:40.243Z,24.73
2022-08-14T10:00:06.684Z,24.56
2022-08-14T10:02:38.522Z,24.43
2022-08-14T10:05:13.171Z,26.65
2022-08-14T10:07:41.203Z,25.30
2022-08-14T10:10:23.516Z,24.54
2022-08-14T10:12:54.615Z,24.28
2022-08-14T10:15:21.034Z,24.13
2022-08-14T10:17:47.553Z,24.11
2022-08-14T10:20:40.501Z,24.43
2022-08-14T10:23:21.686Z,24.68
2022-08-14T10:25:48.506Z,24.36
2022-08-14T10:28:51.417Z,24.38
2022-08-14T10:31:01.630Z,24.58
2022-08-14T10:33:28.092Z,24.84
2022-08-14T10:35:55.055Z,24.40
2022-08-14T10:38:22.497Z,25.18
2022-08-14T10:40:52.170Z,26.39
2022-08-14T10:43:26.423Z,25.15
2022-08-14T10:45:59.697Z,24.81
2022-08-14T10:48:43.401Z,24.66
2022-08-14T10:51:12.162Z,24.38
2022-08-14T10:53:39.915Z,24.46
2022-08-14T10:56:06.664Z,24.52
2022-08-14T10:58:48.536Z,24.52
2022-08-14T11:01:15.488Z,24.50
2022-08-14T11:03:55.391Z,24.86
2022-08-14T11:06:24.595Z,25.01
2022-08-14T11:08:51.301Z,24.82
2022-08-14T11:11:19.252Z,24.96
2022-08-14T11:13:45.773Z,25.49
2022-08-14T11:16:12.555Z,26.34
2022-08-14T11:18:40.307Z,25.30
2022-08-14T11:21:08.248Z,24.75
2022-08-14T11:23:38.161Z,24.71
2022-08-14T11:26:07.074Z,24.48
2022-08-14T11:28:47.149Z,24.53
2022-08-14T11:31:15.040Z,24.57
2022-08-14T11:33:42.257Z,24.69
2022-08-14T11:36:18.350Z,24.84
2022-08-14T11:38:45.173Z,24.63
2022-08-14T11:41:11.680Z,24.55
2022-08-14T11:43:38.085Z,24.74
2022-08-14T11:46:17.789Z,24.75
2022-08-14T11:49:04.216Z,25.82
2022-08-14T11:51:36.437Z,26.44
2022-08-14T11:54:19.674Z,25.20
2022-08-14T11:56:46.501Z,24.51
2022-08-14T11:59:12.887Z,24.65
2022-08-14T12:01:41.429Z,24.55
2022-08-14T12:04:07.973Z,24.42
2022-08-14T12:06:54.330Z,24.44
2022-08-14T12:09:20.780Z,24.81
2022-08-14T12:11:51.709Z,24.49
2022-08-14T12:14:29.703Z,24.63
2022-08-14T12:17:02.203Z,24.79
2022-08-14T12:19:28.716Z,24.93
2022-08-14T12:21:59.941Z,24.67
2022-08-14T12:24:36.068Z,26.62
2022-08-14T12:27:03.326Z,25.88
2022-08-14T12:29:29.755Z,24.89
2022-08-14T12:31:58.420Z,24.74
2022-08-14T12:34:26.216Z,24.51
2022-08-14T12:36:52.641Z,24.54
2022-08-14T12:39:19.141Z,24.75
2022-08-14T12:41:45.587Z,24.75
2022-08-14T12:44:20.215Z,24.78
2022-08-14T12:46:46.995Z,24.98
2022-08-14T12:49:13.409Z,24.84
2022-08-14T12:51:42.819Z,24.91
2022-08-14T12:54:27.603Z,24.76
2022-08-14T12:56:55.331Z,24.96
2022-08-14T12:59:21.994Z,26.33
2022-08-14T13:02:00.382Z,26.25
2022-08-14T13:04:29.756Z,24.99
2022-08-14T13:06:56.127Z,24.68
2022-08-14T13:09:23.348Z,24.84
2022-08-14T13:11:59.095Z,24.90
2022-08-14T13:14:36.203Z,24.51
2022-08-14T13:17:02.625Z,24.74
2022-08-14T13:19:30.832Z,24.98
2022-08-14T13:22:05.518Z,25.03
2022-08-14T13:24:33.589Z,24.86
2022-08-14T13:27:00.263Z,24.91
2022-08-14T13:29:26.672Z,25.05
2022-08-14T13:31:57.694Z,24.73
2022-08-14T13:34:26.430Z,26.35
2022-08-14T13:36:59.397Z,26.45
2022-08-14T13:39:30.466Z,25.23
2022-08-14T13:42:02.276Z,24.72
2022-08-14T13:44:29.809Z,24.79
2022-08-14T13:46:56.292Z,24.87
2022-08-14T13:49:23.905Z,24.88
2022-08-14T13:51:50.511Z,24.97
2022-08-14T13:54:19.420Z,24.79
2022-08-14T13:56:45.817Z,24.81
2022-08-14T13:59:20.324Z,24.81
2022-08-14T14:01:54.819Z,24.96
2022-08-14T14:04:25.463Z,25.02
2022-08-14T14:06:52.393Z,25.04
2022-08-14T14:09:18.813Z,26.02
2022-08-14T14:11:45.545Z,26.58
2022-08-14T14:14:44.518Z,25.30
2022-08-14T14:16:58.349Z,24.70
2022-08-14T14:19:24.706Z,24.87
2022-08-14T14:21:55.964Z,24.73
2022-08-14T14:24:22.644Z,24.65
2022-08-14T14:26:50.275Z,24.85
2022-08-14T14:29:16.973Z,24.77
2022-08-14T14:31:43.637Z,25.16
2022-08-14T14:34:12.592Z,25.18
2022-08-14T14:36:49.863Z,24.94
2022-08-14T14:39:19.900Z,24.81
2022-08-14T14:41:46.771Z,25.10
2022-08-14T14:44:22.324Z,25.47
2022-08-14T14:46:49.810Z,26.47
2022-08-14T14:49:16.428Z,25.38
2022-08-14T14:51:51.630Z,24.79
2022-08-14T14:54:19.048Z,24.86
2022-08-14T14:56:56.500Z,24.98
2022-08-14T14:59:22.912Z,24.89
2022-08-14T15:01:49.533Z,25.03
2022-08-14T15:04:20.745Z,25.16
2022-08-14T15:06:47.997Z,24.90
2022-08-14T15:09:17.977Z,24.87
2022-08-14T15:11:45.576Z,25.30
2022-08-14T15:14:56.913Z,25.11
2022-08-14T15:16:59.218Z,24.88
2022-08-14T15:19:26.902Z,25.42
2022-08-14T15:21:53.312Z,26.63
2022-08-14T15:24:26.789Z,25.68
2022-08-14T15:26:53.726Z,24.83
2022-08-14T15:29:20.087Z,24.74
2022-08-14T15:31:46.549Z,24.69
2022-08-14T15:34:44.467Z,24.75
2022-08-14T15:36:59.359Z,25.10
2022-08-14T15:39:25.815Z,24.92
2022-08-14T15:41:57.207Z,25.12
2022-08-14T15:44:26.314Z,25.22
2022-08-14T15:46:54.482Z,24.86
2022-08-14T15:49:21.505Z,25.05
2022-08-14T15:51:47.883Z,25.32
2022-08-14T15:54:17.465Z,25.06
2022-08-14T15:56:48.296Z,26.95
2022-08-14T15:59:17.266Z,25.92
2022-08-14T16:01:54.294Z,25.26
2022-08-14T16:04:21.429Z,24.85
2022-08-14T16:06:54.570Z,24.85
2022-08-14T16:09:21.437Z,25.01
2022-08-14T16:11:50.623Z,25.01
2022-08-14T16:14:20.609Z,24.96
2022-08-14T16:16:51.308Z,24.88
2022-08-14T16:19:26.135Z,25.23
2022-08-14T16:22:02.752Z,24.85
2022-08-14T16:25:02.234Z,25.12
2022-08-14T16:27:37.877Z,25.14
2022-08-14T16:30:06.332Z,25.16
2022-08-14T16:32:55.019Z,27.03
2022-08-14T16:35:22.058Z,25.57
2022-08-14T16:37:49.021Z,25.06
2022-08-14T16:40:16.178Z,24.84
2022-08-14T16:43:04.358Z,25.06
2022-08-14T16:45:29.010Z,24.82
2022-08-14T16:47:55.456Z,24.86
2022-08-14T16:50:40.619Z,25.26
2022-08-14T16:53:09.671Z,25.12
2022-08-14T16:55:50.949Z,24.92
2022-08-14T16:58:20.071Z,24.98
2022-08-14T17:00:47.223Z,24.94
2022-08-14T17:03:16.151Z,25.26
2022-08-14T17:05:42.987Z,25.87
2022-08-14T17:08:32.255Z,26.81
2022-08-14T17:10:56.539Z,25.35
2022-08-14T17:13:26.987Z,24.96
2022-08-14T17:16:09.933Z,24.88
2022-08-14T17:18:55.504Z,24.87
2022-08-14T17:21:31.487Z,25.04
2022-08-14T17:23:58.361Z,24.85
2022-08-14T17:26:26.514Z,25.20
2022-08-14T17:28:56.862Z,24.88
2022-08-14T17:31:23.230Z,25.02
2022-08-14T17:33:51.755Z,25.04
2022-08-14T17:36:21.055Z,25.10
2022-08-14T17:38:59.750Z,25.21
2022-08-14T17:41:32.738Z,26.66
2022-08-14T17:43:59.501Z,26.57
2022-08-14T17:46:25.931Z,25.17
2022-08-14T17:49:15.913Z,25.00
2022-08-14T17:51:38.874Z,25.01
2022-08-14T17:54:34.487Z,25.08
2022-08-14T17:57:01.569Z,24.75
2022-08-14T17:59:27.998Z,25.11
2022-08-14T18:01:54.716Z,24.89
2022-08-14T18:04:28.015Z,25.20
2022-08-14T18:07:06.079Z,25.01
2022-08-14T18:09:57.234Z,24.93
2022-08-14T18:12:31.813Z,25.05
2022-08-14T18:15:02.346Z,25.03
2022-08-14T18:17:33.472Z,27.17
2022-08-14T18:19:59.867Z,25.74
2022-08-14T18:22:32.943Z,25.34
2022-08-14T18:25:05.812Z,25.09
2022-08-14T18:27:45.790Z,24.93
2022-08-14T18:30:31.691Z,24.77
2022-08-14T18:32:58.682Z,24.90
2022-08-14T18:35:45.648Z,25.28
2022-08-14T18:38:23.038Z,25.01
2022-08-14T18:40:53.025Z,25.01
2022-08-14T18:43:20.603Z,25.26
2022-08-14T18:45:48.494Z,25.05
2022-08-14T18:48:19.199Z,25.09
2022-08-14T18:50:45.819Z,25.29
2022-08-14T18:53:12.550Z,26.92
2022-08-14T18:55:53.501Z,25.94
2022-08-14T18:58:28.000Z,25.23
2022-08-14T19:01:00.474Z,25.18
2022-08-14T19:03:26.902Z,25.07
2022-08-14T19:05:53.270Z,25.05
2022-08-14T19:08:22.120Z,25.18
2022-08-14T19:10:51.674Z,25.11
2022-08-14T19:13:20.550Z,25.20
2022-08-14T19:15:56.116Z,25.20
2022-08-14T19:18:26.055Z,25.43
2022-08-14T19:20:54.362Z,25.19
2022-08-14T19:23:21.397Z,25.40
2022-08-14T19:25:47.961Z,25.36
2022-08-14T19:28:27.277Z,27.24
2022-08-14T19:30:58.379Z,25.86
2022-08-14T19:33:25.198Z,25.63
2022-08-14T19:35:55.884Z,25.44
2022-08-14T19:38:32.172Z,25.28
2022-08-14T19:41:01.387Z,25.44
2022-08-14T19:43:55.729Z,25.48
2022-08-14T19:46:39.256Z,25.43
2022-08-14T19:49:01.136Z,25.21
2022-08-14T19:51:32.534Z,25.32
2022-08-14T19:53:59.494Z,25.53
2022-08-14T19:56:29.179Z,25.41
2022-08-14T19:58:57.726Z,25.54
2022-08-14T20:01:24.241Z,25.45
2022-08-14T20:04:00.548Z,27.51
2022-08-14T20:06:29.060Z,26.13
2022-08-14T20:10:58.463Z,25.66
2022-08-14T20:12:02.992Z,25.34
2022-08-14T20:14:29.849Z,25.39
2022-08-14T20:16:57.147Z,25.50
2022-08-14T20:19:28.599Z,25.19
2022-08-14T20:22:00.667Z,25.33
2022-08-14T20:24:41.885Z,25.42
2022-08-14T20:27:08.426Z,25.40
2022-08-14T20:29:40.646Z,25.43
2022-08-14T20:32:07.182Z,25.66
2022-08-14T20:34:35.477Z,25.69
2022-08-14T20:37:02.621Z,26.35
2022-08-14T20:39:34.280Z,27.03
2022-08-14T20:42:02.488Z,25.68
2022-08-14T20:44:30.405Z,25.42
2022-08-14T20:46:56.789Z,25.47
2022-08-14T20:49:23.330Z,25.19
2022-08-14T20:51:58.391Z,25.35
2022-08-14T20:54:34.721Z,25.46
2022-08-14T20:57:03.251Z,25.50
2022-08-14T20:59:29.696Z,25.51
2022-08-14T21:01:58.598Z,25.26
2022-08-14T21:04:25.022Z,25.52
2022-08-14T21:07:23.013Z,25.35
2022-08-14T21:10:05.765Z,25.34
2022-08-14T21:12:33.798Z,26.65
2022-08-14T21:15:01.987Z,26.73
2022-08-14T21:17:28.479Z,25.72
2022-08-14T21:19:54.872Z,25.46
2022-08-14T21:22:21.284Z,25.29
2022-08-14T21:24:47.979Z,25.06
2022-08-14T21:27:20.266Z,25.58
2022-08-14T21:29:54.382Z,25.60
2022-08-14T21:32:22.544Z,25.42
2022-08-14T21:34:55.335Z,25.70
2022-08-14T21:37:21.949Z,25.47
2022-08-14T21:39:57.058Z,25.38
2022-08-14T21:42:24.951Z,25.50
2022-08-14T21:44:54.492Z,25.66
2022-08-14T21:47:23.623Z,27.24
2022-08-14T21:49:50.895Z,26.86
2022-08-14T21:52:49.528Z,25.89
2022-08-14T21:55:08.905Z,25.71
2022-08-14T21:57:56.200Z,25.35
2022-08-14T22:00:30.602Z,25.30
2022-08-14T22:03:03.220Z,25.62
2022-08-14T22:05:30.341Z,25.36
2022-08-14T22:07:56.746Z,25.39
2022-08-14T22:10:24.279Z,25.44
2022-08-14T22:13:00.400Z,25.68
2022-08-14T22:15:27.415Z,25.50
2022-08-14T22:17:54.980Z,25.51
2022-08-14T22:20:21.655Z,25.47
2022-08-14T22:22:49.176Z,27.82
2022-08-14T22:25:22.702Z,26.54
2022-08-14T22:28:00.207Z,25.64
2022-08-14T22:30:26.719Z,25.46
2022-08-14T22:32:57.665Z,25.69
2022-08-14T22:35:24.738Z,25.58
2022-08-14T22:38:01.595Z,25.82
2022-08-14T22:40:58.894Z,25.78
2022-08-14T22:43:24.031Z,25.47
2022-08-14T22:45:55.496Z,25.67
2022-08-14T22:48:24.220Z,25.45
2022-08-14T22:50:53.638Z,25.56
2022-08-14T22:53:20.251Z,25.69
2022-08-14T22:55:46.781Z,25.68
2022-08-14T22:58:17.135Z,27.61
2022-08-14T23:00:43.957Z,26.06
2022-08-14T23:03:17.010Z,25.89
2022-08-14T23:05:52.691Z,25.57
2022-08-14T23:08:59.298Z,25.45
2022-08-14T23:11:05.863Z,25.65
2022-08-14T23:13:32.833Z,25.72
2022-08-14T23:15:59.350Z,25.72
2022-08-14T23:18:29.408Z,25.80
2022-08-14T23:20:56.397Z,25.82
2022-08-14T23:23:23.370Z,25.85
2022-08-14T23:25:59.289Z,25.55
2022-08-14T23:28:33.865Z,25.92
2022-08-14T23:31:14.096Z,26.80
2022-08-14T23:33:42.251Z,26.98
2022-08-14T23:36:31.778Z,26.11
2022-08-14T23:38:59.082Z,25.69
2022-08-14T23:41:26.368Z,25.72
2022-08-14T23:44:12.586Z,25.72
2022-08-14T23:46:38.963Z,25.77
2022-08-14T23:49:06.000Z,25.92
2022-08-14T23:51:36.272Z,25.63
2022-08-14T23:54:04.967Z,25.92
2022-08-14T23:56:32.447Z,25.73
2022-08-14T23:58:59.224Z,25.74
